createdAt,value
2023-03-16T00:00:14.029Z,100930.22
2023-03-16T00:02:42.748Z,100928.53
2023-03-16T00:05:14.083Z,100928.78
2023-03-16T00:07:43.163Z,100926.84
2023-03-16T00:10:13.577Z,100938.25
2023-03-16T00:12:43.775Z,100761.97
2023-03-16T00:15:12.900Z,100779.94
2023-03-16T00:17:41.045Z,100854.50
2023-03-16T00:20:12.309Z,100948.25
2023-03-16T00:22:40.396Z,100950.19
2023-03-16T00:25:09.754Z,100955.53
2023-03-16T00:27:38.134Z,100963.31
2023-03-16T00:30:07.206Z,100967.69
2023-03-16T00:32:36.968Z,100962.47
2023-03-16T00:35:09.272Z,100878.06
2023-03-16T00:37:39.894Z,100978.38
2023-03-16T00:40:11.572Z,100982.03
2023-03-16T00:42:39.789Z,100880.84
2023-03-16T00:45:09.300Z,100977.56
2023-03-16T00:47:37.477Z,100987.41
2023-03-16T00:50:06.279Z,100992.75
2023-03-16T00:52:35.443Z,100852.53
2023-03-16T00:55:05.289Z,100999.09
2023-03-16T00:57:33.358Z,100994.69
2023-03-16T01:00:06.396Z,100996.41
2023-03-16T01:02:37.136Z,101006.38
2023-03-16T01:05:06.160Z,100907.22
2023-03-16T01:07:36.583Z,101015.25
2023-03-16T01:10:06.915Z,101025.09
2023-03-16T01:12:35.167Z,100924.72
2023-03-16T01:15:03.454Z,101030.44
2023-03-16T01:17:35.017Z,101030.44
2023-03-16T01:20:08.264Z,101033.00
2023-03-16T01:22:36.390Z,101034.09
2023-03-16T01:25:06.546Z,101030.44
2023-03-16T01:27:34.657Z,101035.81
2023-03-16T01:30:02.703Z,101037.50
2023-03-16T01:32:30.823Z,101035.81
2023-03-16T01:34:58.865Z,101042.25
2023-03-16T01:37:26.968Z,101036.66
2023-03-16T01:39:55.034Z,101040.16
2023-03-16T01:42:24.812Z,101040.16
2023-03-16T01:44:55.780Z,100979.41
2023-03-16T01:47:24.182Z,101032.66
2023-03-16T01:49:56.644Z,101055.28
2023-03-16T01:52:28.933Z,101053.53
2023-03-16T01:55:00.714Z,101050.16
2023-03-16T01:57:36.944Z,100973.78
2023-03-16T02:00:10.839Z,101054.53
2023-03-16T02:02:44.274Z,101057.19
2023-03-16T02:05:16.708Z,101057.19
2023-03-16T02:07:49.391Z,101062.56
2023-03-16T02:10:20.124Z,101061.84
2023-03-16T02:12:49.628Z,101065.22
2023-03-16T02:15:17.830Z,101067.91
2023-03-16T02:17:47.526Z,100964.81
2023-03-16T02:20:30.292Z,101069.88
2023-03-16T02:22:59.689Z,101078.59
2023-03-16T02:25:36.070Z,101078.59
2023-03-16T02:28:13.576Z,101089.31
2023-03-16T02:30:43.142Z,101094.66
2023-03-16T02:33:12.722Z,101098.31
2023-03-16T02:35:41.407Z,101104.50
2023-03-16T02:38:10.028Z,101001.47
2023-03-16T02:40:39.307Z,101101.97
2023-03-16T02:43:11.123Z,101103.66
2023-03-16T02:45:45.068Z,101100.25
2023-03-16T02:48:22.436Z,101105.34
2023-03-16T02:50:54.038Z,101090.03
2023-03-16T02:53:22.621Z,101118.97
2023-03-16T02:55:50.912Z,101017.66
2023-03-16T02:58:19.099Z,101104.50
2023-03-16T03:00:48.769Z,101114.38
2023-03-16T03:03:17.005Z,101114.38
2023-03-16T03:05:45.190Z,101118.72
2023-03-16T03:08:13.814Z,101113.50
2023-03-16T03:10:41.954Z,101123.38
2023-03-16T03:13:10.094Z,101114.38
2023-03-16T03:15:38.258Z,101036.97
2023-03-16T03:18:08.025Z,101125.06
2023-03-16T03:20:36.458Z,101125.06
2023-03-16T03:23:05.616Z,101038.44
2023-03-16T03:25:35.441Z,101129.44
2023-03-16T03:28:05.960Z,101134.06
2023-03-16T03:30:34.348Z,101138.44
2023-03-16T03:33:02.869Z,101141.13
2023-03-16T03:35:32.984Z,100988.63
2023-03-16T03:38:01.426Z,101138.44
2023-03-16T03:40:30.136Z,101130.41
2023-03-16T03:42:58.541Z,101014.25
2023-03-16T03:45:26.944Z,101137.69
2023-03-16T03:47:56.293Z,101136.00
2023-03-16T03:50:24.575Z,101079.78
2023-03-16T03:52:54.173Z,101143.06
2023-03-16T03:55:23.090Z,101145.72
2023-03-16T03:57:51.407Z,101139.44
2023-03-16T04:00:21.088Z,101143.91
2023-03-16T04:02:49.605Z,101155.47
2023-03-16T04:05:17.923Z,101167.88
2023-03-16T04:07:46.061Z,101157.19
2023-03-16T04:10:15.740Z,101151.81
2023-03-16T04:12:43.898Z,101160.56
2023-03-16T04:15:13.231Z,101160.56
2023-03-16T04:17:41.348Z,101158.88
2023-03-16T04:20:14.626Z,101167.88
2023-03-16T04:22:43.757Z,101162.75
2023-03-16T04:25:12.675Z,101171.53
2023-03-16T04:27:43.026Z,101172.38
2023-03-16T04:30:14.244Z,101172.25
2023-03-16T04:32:42.618Z,101174.06
2023-03-16T04:35:11.745Z,101086.53
2023-03-16T04:37:40.086Z,101176.88
2023-03-16T04:40:16.631Z,101175.91
2023-03-16T04:42:47.674Z,101055.88
2023-03-16T04:45:17.683Z,101179.56
2023-03-16T04:47:45.942Z,101099.44
2023-03-16T04:50:14.911Z,101183.19
2023-03-16T04:52:43.099Z,101106.22
2023-03-16T04:55:12.138Z,101075.31
2023-03-16T04:57:40.157Z,101199.97
2023-03-16T05:00:15.125Z,101192.94
2023-03-16T05:02:43.178Z,101196.31
2023-03-16T05:05:11.777Z,101200.09
2023-03-16T05:07:41.590Z,101212.38
2023-03-16T05:10:11.061Z,101214.06
2023-03-16T05:12:39.175Z,101214.06
2023-03-16T05:15:10.340Z,101028.28
2023-03-16T05:17:38.683Z,101218.59
2023-03-16T05:20:08.452Z,101223.06
2023-03-16T05:22:36.550Z,101226.72
2023-03-16T05:25:05.656Z,101147.06
2023-03-16T05:27:34.314Z,101233.78
2023-03-16T05:30:02.424Z,101236.69
2023-03-16T05:32:31.918Z,101241.81
2023-03-16T05:35:00.010Z,101249.84
2023-03-16T05:37:28.034Z,101244.47
2023-03-16T05:39:57.746Z,101254.19
2023-03-16T05:42:27.030Z,101249.84
2023-03-16T05:44:55.603Z,101253.50
2023-03-16T05:47:23.696Z,101244.94
2023-03-16T05:49:53.359Z,101266.88
2023-03-16T05:52:21.473Z,101272.09
2023-03-16T05:54:49.616Z,101276.59
2023-03-16T05:57:17.761Z,101274.91
2023-03-16T05:59:45.904Z,101272.22
2023-03-16T06:02:13.985Z,101271.97
2023-03-16T06:04:42.118Z,101280.00
2023-03-16T06:07:12.351Z,101285.38
2023-03-16T06:09:40.483Z,101280.00
2023-03-16T06:12:09.684Z,101280.25
2023-03-16T06:14:37.814Z,101283.63
2023-03-16T06:17:05.961Z,101274.91
2023-03-16T06:19:34.070Z,101277.34
2023-03-16T06:22:02.179Z,101278.41
2023-03-16T06:24:31.756Z,101287.06
2023-03-16T06:26:59.858Z,101276.59
2023-03-16T06:29:28.187Z,101280.84
2023-03-16T06:31:57.188Z,101180.66
2023-03-16T06:34:25.497Z,101291.78
2023-03-16T06:36:53.689Z,101214.50
2023-03-16T06:39:21.911Z,101230.19
2023-03-16T06:41:51.543Z,101298.22
2023-03-16T06:44:19.762Z,101298.09
2023-03-16T06:46:48.222Z,101211.69
2023-03-16T06:49:16.358Z,101189.91
2023-03-16T06:51:44.761Z,101210.38
2023-03-16T06:54:13.117Z,101307.81
2023-03-16T06:56:41.175Z,101304.31
2023-03-16T06:59:11.165Z,101307.00
2023-03-16T07:01:39.340Z,101324.75
2023-03-16T07:04:07.442Z,101315.03
2023-03-16T07:06:35.615Z,101317.69
2023-03-16T07:09:05.136Z,101326.72
2023-03-16T07:11:33.740Z,101328.41
2023-03-16T07:14:02.110Z,101317.94
2023-03-16T07:16:32.312Z,101218.31
2023-03-16T07:19:00.637Z,101332.06
2023-03-16T07:21:28.935Z,101325.84
2023-03-16T07:23:57.042Z,101320.09
2023-03-16T07:26:25.119Z,101337.41
2023-03-16T07:28:53.191Z,101337.41
2023-03-16T07:31:21.351Z,101342.75
2023-03-16T07:33:50.872Z,101345.44
2023-03-16T07:36:19.185Z,101346.50
2023-03-16T07:38:47.393Z,101357.09
2023-03-16T07:41:15.465Z,101348.09
2023-03-16T07:43:44.529Z,101357.94
2023-03-16T07:46:13.856Z,101359.75
2023-03-16T07:48:42.697Z,101366.84
2023-03-16T07:51:13.230Z,101360.75
2023-03-16T07:53:41.950Z,101363.41
2023-03-16T07:56:10.356Z,101178.28
2023-03-16T07:58:38.918Z,101371.44
2023-03-16T08:01:07.246Z,101366.09
2023-03-16T08:03:35.435Z,101363.28
2023-03-16T08:06:04.770Z,101374.88
2023-03-16T08:08:34.385Z,101375.69
2023-03-16T08:11:02.488Z,101355.84
2023-03-16T08:13:30.924Z,101374.88
2023-03-16T08:16:02.142Z,101372.19
2023-03-16T08:18:31.072Z,101380.22
2023-03-16T08:20:59.931Z,101380.22
2023-03-16T08:23:29.518Z,101385.56
2023-03-16T08:25:59.415Z,101379.34
2023-03-16T08:28:27.609Z,101381.16
2023-03-16T08:30:56.262Z,101388.34
2023-03-16T08:33:24.539Z,101395.50
2023-03-16T08:35:52.788Z,101388.25
2023-03-16T08:38:21.001Z,101385.69
2023-03-16T08:40:52.311Z,101286.75
2023-03-16T08:43:21.760Z,101392.84
2023-03-16T08:45:50.975Z,101311.84
2023-03-16T08:48:20.239Z,101393.81
2023-03-16T08:50:48.466Z,101399.88
2023-03-16T08:53:16.647Z,101313.03
2023-03-16T08:55:45.320Z,101398.19
2023-03-16T08:58:14.131Z,101412.31
2023-03-16T09:00:46.461Z,101412.31
2023-03-16T09:03:15.599Z,101408.88
2023-03-16T09:05:43.701Z,101413.25
2023-03-16T09:08:12.842Z,101312.50
2023-03-16T09:10:41.024Z,101397.78
2023-03-16T09:13:09.122Z,101417.66
2023-03-16T09:15:37.676Z,101423.03
2023-03-16T09:18:07.297Z,101328.84
2023-03-16T09:20:35.953Z,101415.84
2023-03-16T09:23:04.860Z,101424.72
2023-03-16T09:25:33.509Z,101278.34
2023-03-16T09:28:01.675Z,101350.00
2023-03-16T09:30:29.931Z,101424.09
2023-03-16T09:32:58.358Z,101432.84
2023-03-16T09:35:28.256Z,101427.50
2023-03-16T09:38:06.228Z,101435.41
2023-03-16T09:40:37.712Z,101433.72
2023-03-16T09:43:20.740Z,101432.00
2023-03-16T09:45:55.532Z,101439.06
2023-03-16T09:48:25.297Z,101438.31
2023-03-16T09:50:57.375Z,101254.78
2023-03-16T09:53:29.722Z,101442.69
2023-03-16T09:56:03.511Z,101439.06
2023-03-16T09:58:32.284Z,101355.59
2023-03-16T10:01:10.977Z,101450.84
2023-03-16T10:03:59.238Z,101443.69
2023-03-16T10:06:29.570Z,101453.41
2023-03-16T10:09:07.084Z,101458.75
2023-03-16T10:11:39.251Z,101359.63
2023-03-16T10:14:19.102Z,101457.06
2023-03-16T10:16:51.600Z,101449.03
2023-03-16T10:19:24.652Z,101458.75
2023-03-16T10:21:58.211Z,101459.72
2023-03-16T10:24:41.983Z,101444.66
2023-03-16T10:27:20.648Z,101447.22
2023-03-16T10:29:49.150Z,101453.41
2023-03-16T10:32:19.656Z,101456.06
2023-03-16T10:34:55.368Z,101450.94
2023-03-16T10:37:25.930Z,101457.28
2023-03-16T10:39:56.541Z,101452.56
2023-03-16T10:42:27.306Z,101458.75
2023-03-16T10:45:00.351Z,101462.41
2023-03-16T10:47:32.536Z,101266.31
2023-03-16T10:50:11.768Z,101449.03
2023-03-16T10:52:44.443Z,101441.00
2023-03-16T10:55:18.874Z,101442.91
2023-03-16T10:57:51.658Z,101449.03
2023-03-16T11:00:23.361Z,101355.59
2023-03-16T11:02:54.425Z,101438.31
2023-03-16T11:05:32.405Z,101437.34
2023-03-16T11:08:09.821Z,101446.34
2023-03-16T11:10:49.518Z,101433.94
2023-03-16T11:13:24.804Z,101455.34
2023-03-16T11:15:58.656Z,101438.00
2023-03-16T11:18:32.439Z,101446.34
2023-03-16T11:21:07.638Z,101436.09
2023-03-16T11:23:40.298Z,101439.31
2023-03-16T11:26:17.721Z,101323.31
2023-03-16T11:28:49.708Z,101435.66
2023-03-16T11:31:24.510Z,101259.38
2023-03-16T11:33:55.573Z,101434.78
2023-03-16T11:36:39.671Z,101441.00
2023-03-16T11:39:16.768Z,101448.28
2023-03-16T11:41:55.964Z,101352.16
2023-03-16T11:44:32.870Z,101433.94
2023-03-16T11:47:11.513Z,101435.66
2023-03-16T11:49:52.066Z,101425.94
2023-03-16T11:52:31.061Z,101433.94
2023-03-16T11:55:13.257Z,101421.53
2023-03-16T11:57:56.195Z,101430.31
2023-03-16T12:00:35.570Z,101421.53
2023-03-16T12:03:27.749Z,101415.22
2023-03-16T12:06:02.016Z,101260.75
2023-03-16T12:08:59.140Z,101417.91
2023-03-16T12:11:31.106Z,101407.19
2023-03-16T12:14:09.194Z,101354.88
2023-03-16T12:16:49.555Z,101410.81
2023-03-16T12:19:23.218Z,101393.50
2023-03-16T12:22:02.854Z,101213.13
2023-03-16T12:24:45.516Z,101394.75
2023-03-16T12:27:18.843Z,101383.78
2023-03-16T12:29:57.124Z,101397.44
2023-03-16T12:32:43.364Z,101394.03
2023-03-16T12:35:29.393Z,101396.50
2023-03-16T12:38:10.817Z,101303.16
2023-03-16T12:40:46.548Z,101378.72
2023-03-16T12:43:35.807Z,101380.44
2023-03-16T12:46:09.041Z,101373.47
2023-03-16T12:48:41.057Z,101369.75
2023-03-16T12:51:09.359Z,101361.72
2023-03-16T12:53:44.792Z,101361.72
2023-03-16T12:56:15.323Z,101352.81
2023-03-16T12:58:50.445Z,101367.06
2023-03-16T13:01:21.483Z,101360.75
2023-03-16T13:03:51.821Z,101366.09
2023-03-16T13:06:23.474Z,101369.75
2023-03-16T13:08:57.899Z,101355.63
2023-03-16T13:11:27.185Z,101359.88
2023-03-16T13:14:10.999Z,101362.88
2023-03-16T13:16:40.993Z,101266.09
2023-03-16T13:19:26.154Z,101360.75
2023-03-16T13:22:04.664Z,101369.75
2023-03-16T13:24:41.284Z,101366.09
2023-03-16T13:27:23.400Z,101359.88
2023-03-16T13:29:58.365Z,101355.38
2023-03-16T13:32:31.462Z,101203.00
2023-03-16T13:35:02.391Z,101351.97
2023-03-16T13:37:31.365Z,101274.91
2023-03-16T13:40:01.314Z,101342.34
2023-03-16T13:42:32.793Z,101341.25
2023-03-16T13:45:14.422Z,101341.25
2023-03-16T13:47:44.603Z,101261.78
2023-03-16T13:50:16.154Z,101329.72
2023-03-16T13:52:44.910Z,101333.97
2023-03-16T13:55:18.000Z,101333.97
2023-03-16T13:57:47.641Z,101347.34
2023-03-16T14:00:20.474Z,101339.34
2023-03-16T14:02:53.221Z,101333.13
2023-03-16T14:05:24.664Z,101329.50
2023-03-16T14:07:54.356Z,101325.94
2023-03-16T14:10:24.107Z,101322.41
2023-03-16T14:12:53.271Z,101323.28
2023-03-16T14:15:26.219Z,101327.78
2023-03-16T14:17:55.571Z,101334.84
2023-03-16T14:20:26.148Z,101321.59
2023-03-16T14:22:54.966Z,101319.84
2023-03-16T14:25:25.688Z,101310.88
2023-03-16T14:28:00.390Z,101312.56
2023-03-16T14:30:32.214Z,101311.72
2023-03-16T14:33:01.586Z,101297.63
2023-03-16T14:35:32.275Z,101307.22
2023-03-16T14:38:21.863Z,101308.94
2023-03-16T14:40:55.134Z,101305.53
2023-03-16T14:43:30.775Z,101246.25
2023-03-16T14:46:01.816Z,101301.88
2023-03-16T14:48:30.372Z,101305.41
2023-03-16T14:51:01.732Z,101296.75
2023-03-16T14:53:30.350Z,101301.88
2023-03-16T14:55:59.656Z,101227.28
2023-03-16T14:58:27.977Z,101291.19
2023-03-16T15:00:56.585Z,101205.66
2023-03-16T15:03:33.905Z,101284.97
2023-03-16T15:06:02.502Z,101282.63
2023-03-16T15:08:33.840Z,101283.16
2023-03-16T15:11:06.034Z,101282.16
2023-03-16T15:13:53.342Z,101280.47
2023-03-16T15:16:23.196Z,101280.47
2023-03-16T15:18:53.179Z,101268.91
2023-03-16T15:21:24.331Z,101149.75
2023-03-16T15:23:52.565Z,101275.13
2023-03-16T15:26:27.359Z,101277.06
2023-03-16T15:28:56.812Z,101259.06
2023-03-16T15:31:25.504Z,101087.50
2023-03-16T15:33:55.053Z,101259.06
2023-03-16T15:36:24.517Z,101264.41
2023-03-16T15:38:55.308Z,101258.22
2023-03-16T15:41:28.293Z,101262.50
2023-03-16T15:44:01.053Z,101253.72
2023-03-16T15:46:29.651Z,101268.91
2023-03-16T15:48:59.550Z,101090.47
2023-03-16T15:51:30.908Z,101255.66
2023-03-16T15:54:01.803Z,101186.44
2023-03-16T15:56:47.253Z,101183.19
2023-03-16T15:59:19.447Z,101244.72
2023-03-16T16:01:48.778Z,101243.03
2023-03-16T16:04:21.767Z,101185.03
2023-03-16T16:06:51.850Z,101228.66
2023-03-16T16:09:20.516Z,101141.97
2023-03-16T16:11:50.588Z,101158.59
2023-03-16T16:14:28.214Z,101227.94
2023-03-16T16:16:56.728Z,101039.88
2023-03-16T16:19:27.441Z,101228.91
2023-03-16T16:21:55.571Z,101228.91
2023-03-16T16:24:23.689Z,101241.31
2023-03-16T16:26:55.395Z,101222.72
2023-03-16T16:29:25.286Z,101216.38
2023-03-16T16:31:53.870Z,101232.44
2023-03-16T16:34:24.882Z,101219.06
2023-03-16T16:36:55.018Z,101145.88
2023-03-16T16:39:23.690Z,101214.56
2023-03-16T16:41:55.391Z,101207.50
2023-03-16T16:44:25.776Z,101201.19
2023-03-16T16:46:55.305Z,101206.53
2023-03-16T16:49:25.174Z,101197.66
2023-03-16T16:51:55.557Z,101126.69
2023-03-16T16:54:25.821Z,101198.53
2023-03-16T16:56:55.857Z,101187.81
2023-03-16T16:59:26.441Z,101179.06
2023-03-16T17:01:55.138Z,101176.25
2023-03-16T17:04:26.185Z,101166.41
2023-03-16T17:06:58.901Z,101009.66
2023-03-16T17:09:28.570Z,101184.28
2023-03-16T17:11:59.015Z,101186.09
2023-03-16T17:14:28.998Z,101193.16
2023-03-16T17:16:57.592Z,101186.97
2023-03-16T17:19:28.159Z,101110.59
2023-03-16T17:21:59.473Z,101183.41
2023-03-16T17:24:28.870Z,101095.78
2023-03-16T17:27:00.168Z,101195.84
2023-03-16T17:29:34.546Z,101101.88
2023-03-16T17:32:04.120Z,101196.78
2023-03-16T17:34:35.452Z,101111.59
2023-03-16T17:37:05.589Z,101187.06
2023-03-16T17:39:35.186Z,101191.44
2023-03-16T17:42:05.339Z,101201.31
2023-03-16T17:44:36.240Z,101114.13
2023-03-16T17:47:04.650Z,101196.78
2023-03-16T17:49:32.787Z,101198.53
2023-03-16T17:52:01.036Z,101193.16
2023-03-16T17:54:32.308Z,101203.88
2023-03-16T17:57:00.477Z,101201.19
2023-03-16T17:59:28.747Z,101195.09
2023-03-16T18:01:57.266Z,101117.16
2023-03-16T18:04:27.660Z,101106.69
2023-03-16T18:06:55.815Z,101189.50
2023-03-16T18:09:23.879Z,101198.53
2023-03-16T18:11:53.553Z,101194.88
2023-03-16T18:14:35.189Z,101189.50
2023-03-16T18:17:04.412Z,101185.16
2023-03-16T18:19:33.590Z,101172.59
2023-03-16T18:22:01.721Z,101189.50
2023-03-16T18:24:29.945Z,101168.13
2023-03-16T18:26:59.428Z,101168.13
2023-03-16T18:29:27.578Z,101169.81
2023-03-16T18:31:59.384Z,101173.34
2023-03-16T18:34:32.334Z,101167.13
2023-03-16T18:37:06.225Z,101164.47
2023-03-16T18:39:34.681Z,101169.81
2023-03-16T18:42:04.532Z,101164.47
2023-03-16T18:44:33.125Z,101002.34
2023-03-16T18:47:04.462Z,101153.75
2023-03-16T18:49:35.705Z,101117.59
2023-03-16T18:52:05.205Z,101146.72
2023-03-16T18:54:35.623Z,101146.72
2023-03-16T18:57:15.640Z,101020.91
2023-03-16T18:59:43.788Z,101125.31
2023-03-16T19:02:36.112Z,101124.31
2023-03-16T19:05:07.634Z,101123.63
2023-03-16T19:07:38.999Z,101108.03
2023-03-16T19:10:15.230Z,101119.97
2023-03-16T19:12:44.724Z,101115.47
2023-03-16T19:15:22.022Z,101107.56
2023-03-16T19:17:50.624Z,101105.84
2023-03-16T19:20:22.153Z,101116.53
2023-03-16T19:22:52.116Z,101128.09
2023-03-16T19:25:25.460Z,101118.25
2023-03-16T19:27:55.197Z,101118.25
2023-03-16T19:30:26.689Z,101119.97
2023-03-16T19:32:55.578Z,101098.78
2023-03-16T19:35:36.311Z,101017.28
2023-03-16T19:38:13.132Z,101110.25
2023-03-16T19:40:41.913Z,101108.41
2023-03-16T19:43:18.017Z,100991.84
2023-03-16T19:45:46.945Z,101108.41
2023-03-16T19:48:20.381Z,101107.56
2023-03-16T19:50:49.338Z,101110.25
2023-03-16T19:53:19.916Z,101115.59
2023-03-16T19:55:49.584Z,101128.97
2023-03-16T19:58:30.565Z,101125.31
2023-03-16T20:00:59.116Z,101108.41
2023-03-16T20:03:27.518Z,101018.53
2023-03-16T20:05:56.355Z,101087.84
2023-03-16T20:08:28.777Z,101088.56
2023-03-16T20:11:02.306Z,101097.81
2023-03-16T20:13:32.562Z,101089.53
2023-03-16T20:16:01.814Z,101091.50
2023-03-16T20:18:30.204Z,101089.53
2023-03-16T20:20:58.539Z,101044.53
2023-03-16T20:23:29.368Z,101085.94
2023-03-16T20:26:02.682Z,101089.53
2023-03-16T20:28:37.031Z,101085.06
2023-03-16T20:31:08.491Z,101085.94
2023-03-16T20:33:36.876Z,101074.34
2023-03-16T20:36:05.727Z,101078.84
2023-03-16T20:38:34.449Z,101062.78
2023-03-16T20:41:02.721Z,101082.50
2023-03-16T20:43:33.716Z,101075.22
2023-03-16T20:46:06.374Z,101070.13
2023-03-16T20:48:34.517Z,100987.91
2023-03-16T20:51:02.898Z,100951.94
2023-03-16T20:53:31.406Z,101035.31
2023-03-16T20:56:00.194Z,101057.44
2023-03-16T20:58:29.174Z,101065.47
2023-03-16T21:00:58.782Z,100974.28
2023-03-16T21:03:29.675Z,101058.44
2023-03-16T21:06:00.104Z,100964.31
2023-03-16T21:08:28.592Z,101046.75
2023-03-16T21:10:59.939Z,100933.97
2023-03-16T21:13:32.056Z,101048.47
2023-03-16T21:16:03.437Z,100957.41
2023-03-16T21:18:33.146Z,101045.91
2023-03-16T21:21:01.944Z,101043.13
2023-03-16T21:23:30.190Z,101043.13
2023-03-16T21:26:01.538Z,101042.38
2023-03-16T21:28:33.605Z,101026.31
2023-03-16T21:31:04.107Z,101020.84
2023-03-16T21:33:37.396Z,100921.06
2023-03-16T21:36:08.828Z,100924.97
2023-03-16T21:38:37.038Z,101020.00
2023-03-16T21:41:05.460Z,100848.88
2023-03-16T21:43:33.567Z,101005.91
2023-03-16T21:46:03.977Z,101024.50
2023-03-16T21:48:37.372Z,100948.53
2023-03-16T21:51:13.560Z,101026.31
2023-03-16T21:53:42.487Z,101025.34
2023-03-16T21:56:15.602Z,101009.28
2023-03-16T21:58:44.277Z,101013.69
2023-03-16T22:01:23.347Z,101016.38
2023-03-16T22:03:53.990Z,100990.56
2023-03-16T22:06:24.116Z,100993.25
2023-03-16T22:08:52.721Z,100989.63
2023-03-16T22:11:23.348Z,101000.31
2023-03-16T22:13:52.529Z,100925.09
2023-03-16T22:16:24.541Z,101000.31
2023-03-16T22:18:56.352Z,100926.88
2023-03-16T22:21:30.425Z,100991.56
2023-03-16T22:23:59.324Z,100983.53
2023-03-16T22:26:28.924Z,100993.25
2023-03-16T22:28:58.072Z,101001.25
2023-03-16T22:31:33.641Z,100986.19
2023-03-16T22:34:03.538Z,100935.78
2023-03-16T22:36:33.767Z,100991.56
2023-03-16T22:39:04.890Z,100999.44
2023-03-16T22:41:33.534Z,100994.97
2023-03-16T22:44:02.988Z,100807.00
2023-03-16T22:46:32.523Z,100988.75
2023-03-16T22:49:01.086Z,100997.63
2023-03-16T22:51:33.123Z,101016.38
2023-03-16T22:54:04.723Z,100831.78
2023-03-16T22:56:33.897Z,100862.63
2023-03-16T22:59:05.992Z,100878.28
2023-03-16T23:01:38.969Z,100885.63
2023-03-16T23:04:15.783Z,100973.56
2023-03-16T23:06:44.766Z,100959.44
2023-03-16T23:09:14.064Z,100805.41
2023-03-16T23:11:43.763Z,100961.88
2023-03-16T23:14:15.013Z,100851.00
2023-03-16T23:16:45.822Z,100936.09
2023-03-16T23:19:25.338Z,100867.38
2023-03-16T23:21:55.762Z,100957.50
2023-03-16T23:24:24.815Z,100957.50
2023-03-16T23:26:54.290Z,100952.16
2023-03-16T23:29:23.878Z,100832.66
2023-03-16T23:31:54.645Z,100929.03
2023-03-16T23:34:25.323Z,100913.22
2023-03-16T23:36:53.796Z,100905.94
2023-03-16T23:39:22.010Z,100699.56
2023-03-16T23:41:51.339Z,100886.47
2023-03-16T23:44:23.237Z,100873.84
2023-03-16T23:46:51.858Z,100701.75
2023-03-16T23:49:23.662Z,100880.88
2023-03-16T23:51:52.786Z,100783.03
2023-03-16T23:54:23.149Z,100784.53
2023-03-16T23:56:51.822Z,100883.44
2023-03-16T23:59:21.036Z,100891.59
